createdAt,value
2023-02-21T00:02:07.249Z,100705.75
2023-02-21T00:04:53.650Z,100699.75
2023-02-21T00:07:40.602Z,100698.84
2023-02-21T00:10:28.196Z,100697.06
2023-02-21T00:13:14.534Z,100696.41
2023-02-21T00:16:01.109Z,100692.09
2023-02-21T00:18:47.761Z,100684.09
2023-02-21T00:21:34.507Z,100679.91
2023-02-21T00:24:20.456Z,100692.69
2023-02-21T00:27:06.808Z,100682.62
2023-02-21T00:29:53.232Z,100678.13
2023-02-21T00:32:40.217Z,100673.75
2023-02-21T00:35:26.132Z,100686.62
2023-02-21T00:38:12.628Z,100680.59
2023-02-21T00:40:58.525Z,100683.41
2023-02-21T00:43:53.076Z,100681.47
2023-02-21T00:46:40.667Z,100676.38
2023-02-21T00:49:28.326Z,100679.75
2023-02-21T00:52:14.349Z,100684.16
2023-02-21T00:55:01.011Z,100671.88
2023-02-21T00:57:47.265Z,100668.94
2023-02-21T01:00:37.851Z,100671.28
2023-02-21T01:03:24.493Z,100670.44
2023-02-21T01:06:11.516Z,100680.22
2023-02-21T01:09:05.040Z,100664.69
2023-02-21T01:11:51.587Z,100673.41
2023-02-21T01:14:37.786Z,100666.47
2023-02-21T01:17:24.515Z,100670.75
2023-02-21T01:20:10.843Z,100676.03
2023-02-21T01:22:57.404Z,100678.59
2023-02-21T01:25:43.410Z,100656.91
2023-02-21T01:28:29.557Z,100663.91
2023-02-21T01:31:15.717Z,100656.91
2023-02-21T01:34:02.733Z,100657.28
2023-02-21T01:36:49.120Z,100667.56
2023-02-21T01:39:35.493Z,100662.47
2023-02-21T01:42:21.647Z,100662.50
2023-02-21T01:45:07.926Z,100654.91
2023-02-21T01:47:53.949Z,100648.97
2023-02-21T01:50:46.883Z,100668.13
2023-02-21T01:53:36.979Z,100669.22
2023-02-21T01:56:25.009Z,100662.34
2023-02-21T01:59:13.092Z,100671.09
2023-02-21T02:02:13.204Z,100667.63
2023-02-21T02:05:00.887Z,100684.25
2023-02-21T02:07:47.214Z,100681.69
2023-02-21T02:10:33.897Z,100667.75
2023-02-21T02:13:41.066Z,100677.50
2023-02-21T02:16:18.957Z,100665.41
2023-02-21T02:19:27.648Z,100665.53
2023-02-21T02:22:32.189Z,100668.22
2023-02-21T02:25:14.813Z,100662.88
2023-02-21T02:28:23.364Z,100663.84
2023-02-21T02:31:13.578Z,100653.91
2023-02-21T02:34:09.645Z,100647.72
2023-02-21T02:36:43.271Z,100651.63
2023-02-21T02:39:28.354Z,100645.62
2023-02-21T02:42:06.710Z,100646.22
2023-02-21T02:44:40.751Z,100647.44
2023-02-21T02:47:16.699Z,100643.00
2023-02-21T02:49:45.503Z,100638.69
2023-02-21T02:52:13.223Z,100640.69
2023-02-21T02:54:40.760Z,100639.16
2023-02-21T02:57:12.945Z,100637.06
2023-02-21T02:59:45.188Z,100628.25
2023-02-21T03:02:50.529Z,100644.84
2023-02-21T03:05:44.067Z,100642.69
2023-02-21T03:08:25.270Z,100637.19
2023-02-21T03:11:19.349Z,100639.00
2023-02-21T03:13:57.760Z,100650.37
2023-02-21T03:16:28.364Z,100641.69
2023-02-21T03:19:19.916Z,100639.34
2023-02-21T03:22:10.254Z,100640.28
2023-02-21T03:24:39.576Z,100637.44
2023-02-21T03:27:08.542Z,100630.69
2023-02-21T03:29:38.266Z,100637.09
2023-02-21T03:32:14.143Z,100631.84
2023-02-21T03:34:43.228Z,100633.59
2023-02-21T03:37:31.028Z,100639.78
2023-02-21T03:39:58.735Z,100653.81
2023-02-21T03:42:27.428Z,100647.75
2023-02-21T03:44:55.214Z,100645.38
2023-02-21T03:47:23.360Z,100648.25
2023-02-21T03:49:51.616Z,100641.97
2023-02-21T03:52:19.411Z,100643.28
2023-02-21T03:54:47.217Z,100637.53
2023-02-21T03:57:15.654Z,100638.50
2023-02-21T03:59:45.541Z,100635.12
2023-02-21T04:02:14.490Z,100635.38
2023-02-21T04:04:42.890Z,100637.19
2023-02-21T04:07:11.620Z,100642.59
2023-02-21T04:09:40.383Z,100639.31
2023-02-21T04:12:08.692Z,100634.94
2023-02-21T04:14:36.520Z,100639.19
2023-02-21T04:17:04.470Z,100637.25
2023-02-21T04:19:33.478Z,100632.94
2023-02-21T04:22:02.779Z,100643.28
2023-02-21T04:24:32.474Z,100633.03
2023-02-21T04:27:02.337Z,100635.38
2023-02-21T04:29:31.040Z,100641.50
2023-02-21T04:31:58.656Z,100637.06
2023-02-21T04:34:26.514Z,100628.25
2023-02-21T04:36:54.724Z,100642.12
2023-02-21T04:39:22.325Z,100638.66
2023-02-21T04:41:50.297Z,100635.91
2023-02-21T04:44:18.361Z,100636.91
2023-02-21T04:46:46.128Z,100639.56
2023-02-21T04:49:14.186Z,100644.81
2023-02-21T04:51:42.384Z,100649.28
2023-02-21T04:54:09.918Z,100647.53
2023-02-21T04:56:38.087Z,100642.12
2023-02-21T04:59:05.856Z,100634.22
2023-02-21T05:01:33.522Z,100634.16
2023-02-21T05:04:01.699Z,100636.03
2023-02-21T05:06:30.465Z,100635.12
2023-02-21T05:08:59.133Z,100626.44
2023-02-21T05:11:27.381Z,100625.25
2023-02-21T05:13:55.001Z,100627.75
2023-02-21T05:16:22.585Z,100620.69
2023-02-21T05:18:52.260Z,100622.50
2023-02-21T05:21:20.324Z,100620.69
2023-02-21T05:23:57.277Z,100618.09
2023-02-21T05:26:27.530Z,100619.06
2023-02-21T05:28:55.123Z,100618.28
2023-02-21T05:31:22.797Z,100621.00
2023-02-21T05:33:50.848Z,100616.47
2023-02-21T05:36:18.418Z,100620.88
2023-02-21T05:38:51.571Z,100614.03
2023-02-21T05:41:19.999Z,100609.00
2023-02-21T05:43:48.824Z,100613.28
2023-02-21T05:46:22.378Z,100622.31
2023-02-21T05:48:50.562Z,100620.56
2023-02-21T05:51:18.855Z,100625.53
2023-02-21T05:53:46.814Z,100619.28
2023-02-21T05:56:14.998Z,100625.19
2023-02-21T05:58:42.724Z,100625.47
2023-02-21T06:01:10.371Z,100625.19
2023-02-21T06:03:38.343Z,100629.81
2023-02-21T06:06:06.178Z,100627.75
2023-02-21T06:08:42.683Z,100637.34
2023-02-21T06:11:11.062Z,100641.06
2023-02-21T06:13:38.739Z,100642.97
2023-02-21T06:16:07.176Z,100646.19
2023-02-21T06:18:36.406Z,100637.88
2023-02-21T06:21:04.066Z,100643.03
2023-02-21T06:23:31.763Z,100636.81
2023-02-21T06:25:59.841Z,100649.31
2023-02-21T06:28:31.660Z,100643.47
2023-02-21T06:30:59.818Z,100653.94
2023-02-21T06:33:27.366Z,100662.09
2023-02-21T06:35:54.912Z,100660.03
2023-02-21T06:38:22.944Z,100659.53
2023-02-21T06:40:51.048Z,100664.75
2023-02-21T06:43:19.282Z,100674.22
2023-02-21T06:45:47.201Z,100661.78
2023-02-21T06:48:16.358Z,100673.03
2023-02-21T06:50:43.954Z,100677.13
2023-02-21T06:53:11.887Z,100672.56
2023-02-21T06:55:39.428Z,100673.00
2023-02-21T06:58:07.068Z,100683.03
2023-02-21T07:00:34.982Z,100686.41
2023-02-21T07:03:06.260Z,100687.19
2023-02-21T07:05:38.657Z,100691.22
2023-02-21T07:08:06.260Z,100689.22
2023-02-21T07:10:35.248Z,100685.84
2023-02-21T07:13:03.386Z,100689.94
2023-02-21T07:15:31.030Z,100693.69
2023-02-21T07:17:58.610Z,100680.25
2023-02-21T07:20:27.591Z,100684.50
2023-02-21T07:22:55.043Z,100689.59
2023-02-21T07:25:22.959Z,100678.81
2023-02-21T07:27:52.780Z,100680.97
2023-02-21T07:30:20.896Z,100682.13
2023-02-21T07:32:48.466Z,100677.47
2023-02-21T07:35:16.465Z,100677.41
2023-02-21T07:37:44.095Z,100673.44
2023-02-21T07:40:11.784Z,100680.78
2023-02-21T07:42:43.727Z,100667.50
2023-02-21T07:45:12.046Z,100670.16
2023-02-21T07:47:39.926Z,100671.06
2023-02-21T07:50:08.244Z,100664.69
2023-02-21T07:52:36.344Z,100673.00
2023-02-21T07:55:04.597Z,100668.44
2023-02-21T07:57:32.218Z,100667.53
2023-02-21T08:00:00.226Z,100668.28
2023-02-21T08:02:28.123Z,100671.50
2023-02-21T08:04:55.976Z,100680.25
2023-02-21T08:07:25.287Z,100678.66
2023-02-21T08:09:54.375Z,100671.28
2023-02-21T08:12:22.682Z,100681.25
2023-02-21T08:14:50.221Z,100675.81
2023-02-21T08:17:17.760Z,100695.63
2023-02-21T08:19:45.616Z,100677.87
2023-02-21T08:22:13.218Z,100690.44
2023-02-21T08:24:40.779Z,100678.19
2023-02-21T08:27:08.761Z,100691.09
2023-02-21T08:29:36.480Z,100682.09
2023-02-21T08:32:04.158Z,100674.81
2023-02-21T08:34:32.257Z,100677.81
2023-02-21T08:36:59.866Z,100676.81
2023-02-21T08:39:30.264Z,100679.12
2023-02-21T08:41:58.082Z,100675.31
2023-02-21T08:44:25.587Z,100679.59
2023-02-21T08:46:53.184Z,100679.84
2023-02-21T08:49:21.177Z,100679.69
2023-02-21T08:51:48.806Z,100680.06
2023-02-21T08:54:16.458Z,100679.53
2023-02-21T08:56:44.295Z,100674.25
2023-02-21T08:59:11.974Z,100676.84
2023-02-21T09:01:39.737Z,100671.72
2023-02-21T09:04:07.779Z,100671.22
2023-02-21T09:06:35.395Z,100658.88
2023-02-21T09:09:02.971Z,100662.06
2023-02-21T09:11:30.780Z,100677.53
2023-02-21T09:13:58.470Z,100680.81
2023-02-21T09:16:27.145Z,100655.94
2023-02-21T09:18:56.934Z,100659.09
2023-02-21T09:21:25.423Z,100657.34
2023-02-21T09:23:57.072Z,100657.03
2023-02-21T09:26:26.146Z,100660.34
2023-02-21T09:28:53.702Z,100648.28
2023-02-21T09:31:21.686Z,100656.12
2023-02-21T09:33:49.974Z,100639.91
2023-02-21T09:36:23.714Z,100639.25
2023-02-21T09:38:51.866Z,100645.28
2023-02-21T09:41:19.912Z,100647.00
2023-02-21T09:43:49.520Z,100649.72
2023-02-21T09:46:32.442Z,100646.78
2023-02-21T09:49:01.525Z,100645.28
2023-02-21T09:51:32.209Z,100652.09
2023-02-21T09:54:00.790Z,100652.34
2023-02-21T09:56:34.266Z,100637.03
2023-02-21T09:59:02.222Z,100647.13
2023-02-21T10:01:39.209Z,100645.84
2023-02-21T10:04:33.228Z,100641.69
2023-02-21T10:07:13.383Z,100644.56
2023-02-21T10:09:47.405Z,100642.00
2023-02-21T10:12:19.561Z,100636.06
2023-02-21T10:15:08.879Z,100626.91
2023-02-21T10:17:50.941Z,100633.50
2023-02-21T10:20:47.204Z,100630.28
2023-02-21T10:23:30.917Z,100636.53
2023-02-21T10:26:07.548Z,100647.88
2023-02-21T10:28:35.944Z,100629.03
2023-02-21T10:31:14.662Z,100631.19
2023-02-21T10:33:42.675Z,100625.75
2023-02-21T10:36:23.266Z,100619.94
2023-02-21T10:38:54.892Z,100614.62
2023-02-21T10:41:23.458Z,100610.16
2023-02-21T10:43:55.313Z,100605.69
2023-02-21T10:46:28.712Z,100593.69
2023-02-21T10:49:30.540Z,100608.00
2023-02-21T10:52:04.489Z,100605.28
2023-02-21T10:54:35.040Z,100598.50
2023-02-21T10:57:12.390Z,100606.44
2023-02-21T10:59:45.838Z,100591.56
2023-02-21T11:02:29.537Z,100591.16
2023-02-21T11:05:08.659Z,100591.12
2023-02-21T11:07:36.703Z,100583.38
2023-02-21T11:10:48.234Z,100577.94
2023-02-21T11:13:17.410Z,100567.56
2023-02-21T11:15:45.764Z,100572.75
2023-02-21T11:18:27.104Z,100580.94
2023-02-21T11:20:55.073Z,100580.31
2023-02-21T11:23:28.254Z,100566.19
2023-02-21T11:26:07.838Z,100572.97
2023-02-21T11:28:44.155Z,100558.41
2023-02-21T11:31:19.662Z,100564.06
2023-02-21T11:34:09.512Z,100555.91
2023-02-21T11:36:40.266Z,100559.72
2023-02-21T11:39:18.769Z,100557.00
2023-02-21T11:41:56.481Z,100546.41
2023-02-21T11:44:37.747Z,100549.06
2023-02-21T11:47:14.535Z,100553.50
2023-02-21T11:50:01.616Z,100551.44
2023-02-21T11:52:55.435Z,100547.00
2023-02-21T11:55:26.365Z,100552.91
2023-02-21T11:58:11.628Z,100547.22
2023-02-21T12:01:01.982Z,100539.47
2023-02-21T12:03:41.756Z,100536.75
2023-02-21T12:07:11.705Z,100528.81
2023-02-21T12:10:16.098Z,100519.25
2023-02-21T12:13:11.870Z,100523.16
2023-02-21T12:16:01.322Z,100510.78
2023-02-21T12:19:01.094Z,100517.44
2023-02-21T12:22:04.036Z,100512.09
2023-02-21T12:24:49.941Z,100525.00
2023-02-21T12:27:28.122Z,100509.47
2023-02-21T12:30:02.594Z,100507.19
2023-02-21T12:32:57.456Z,100509.25
2023-02-21T12:35:40.162Z,100500.09
2023-02-21T12:38:43.704Z,100508.53
2023-02-21T12:41:23.467Z,100504.09
2023-02-21T12:44:29.563Z,100500.09
2023-02-21T12:47:20.441Z,100488.63
2023-02-21T12:49:59.144Z,100493.09
2023-02-21T12:52:32.780Z,100490.91
2023-02-21T12:55:03.730Z,100483.88
2023-02-21T12:57:59.473Z,100480.16
2023-02-21T13:01:04.406Z,100480.41
2023-02-21T13:03:55.836Z,100491.50
2023-02-21T13:06:36.975Z,100485.97
2023-02-21T13:09:30.316Z,100469.38
2023-02-21T13:12:00.856Z,100478.56
2023-02-21T13:14:52.803Z,100472.28
2023-02-21T13:17:21.326Z,100469.94
2023-02-21T13:20:06.617Z,100474.53
2023-02-21T13:23:32.193Z,100472.53
2023-02-21T13:26:30.433Z,100464.37
2023-02-21T13:28:58.815Z,100462.91
2023-02-21T13:31:39.429Z,100467.91
2023-02-21T13:34:09.917Z,100456.81
2023-02-21T13:36:43.526Z,100456.97
2023-02-21T13:39:40.762Z,100466.75
2023-02-21T13:42:11.568Z,100460.41
2023-02-21T13:44:42.904Z,100445.88
2023-02-21T13:47:17.813Z,100448.16
2023-02-21T13:50:30.570Z,100466.41
2023-02-21T13:53:14.295Z,100450.78
2023-02-21T13:56:08.109Z,100448.91
2023-02-21T13:58:38.062Z,100450.25
2023-02-21T14:01:41.412Z,100451.72
2023-02-21T14:04:49.436Z,100460.81
2023-02-21T14:07:17.104Z,100444.06
2023-02-21T14:09:46.414Z,100441.75
2023-02-21T14:12:16.482Z,100452.19
2023-02-21T14:14:46.659Z,100443.94
2023-02-21T14:17:14.928Z,100444.72
2023-02-21T14:19:49.139Z,100440.81
2023-02-21T14:22:21.987Z,100431.22
2023-02-21T14:25:24.434Z,100429.41
2023-02-21T14:28:25.742Z,100427.44
2023-02-21T14:31:03.528Z,100443.13
2023-02-21T14:33:33.066Z,100430.44
2023-02-21T14:36:05.442Z,100427.06
2023-02-21T14:38:38.013Z,100422.47
2023-02-21T14:41:18.739Z,100425.22
2023-02-21T14:43:56.053Z,100423.16
2023-02-21T14:46:31.068Z,100429.31
2023-02-21T14:49:22.008Z,100418.69
2023-02-21T14:52:05.491Z,100432.66
2023-02-21T14:55:10.817Z,100438.41
2023-02-21T14:57:53.476Z,100449.28
2023-02-21T15:00:30.493Z,100444.19
2023-02-21T15:03:07.357Z,100445.38
2023-02-21T15:05:39.224Z,100425.53
2023-02-21T15:08:24.114Z,100439.56
2023-02-21T15:10:56.373Z,100437.25
2023-02-21T15:13:28.154Z,100445.94
2023-02-21T15:16:01.880Z,100440.31
2023-02-21T15:18:31.278Z,100447.13
2023-02-21T15:21:03.703Z,100445.03
2023-02-21T15:23:31.657Z,100436.00
2023-02-21T15:26:02.804Z,100442.50
2023-02-21T15:28:32.424Z,100443.56
2023-02-21T15:31:03.717Z,100441.59
2023-02-21T15:33:35.931Z,100435.22
2023-02-21T15:36:07.527Z,100451.97
2023-02-21T15:38:50.113Z,100442.31
2023-02-21T15:41:26.752Z,100448.34
2023-02-21T15:44:01.215Z,100446.22
2023-02-21T15:46:34.378Z,100450.34
2023-02-21T15:49:04.092Z,100457.56
2023-02-21T15:51:32.175Z,100460.81
2023-02-21T15:54:18.233Z,100456.91
2023-02-21T15:56:46.099Z,100456.56
2023-02-21T15:59:26.028Z,100454.75
2023-02-21T16:02:15.603Z,100461.84
2023-02-21T16:04:48.446Z,100461.69
2023-02-21T16:07:22.102Z,100456.12
2023-02-21T16:10:00.623Z,100457.69
2023-02-21T16:12:33.681Z,100457.69
2023-02-21T16:15:24.330Z,100466.75
2023-02-21T16:17:57.190Z,100464.22
2023-02-21T16:20:33.570Z,100468.66
2023-02-21T16:23:19.836Z,100476.22
2023-02-21T16:26:07.017Z,100485.69
2023-02-21T16:28:36.248Z,100484.44
2023-02-21T16:31:06.705Z,100487.75
2023-02-21T16:33:34.762Z,100496.81
2023-02-21T16:36:07.389Z,100487.47
2023-02-21T16:38:35.321Z,100496.41
2023-02-21T16:41:03.465Z,100501.13
2023-02-21T16:43:31.002Z,100502.69
2023-02-21T16:45:59.299Z,100503.72
2023-02-21T16:48:33.279Z,100504.00
2023-02-21T16:51:03.828Z,100500.56
2023-02-21T16:53:32.070Z,100511.47
2023-02-21T16:56:01.628Z,100519.84
2023-02-21T16:58:36.583Z,100524.53
2023-02-21T17:01:13.199Z,100527.50
2023-02-21T17:03:42.392Z,100524.19
2023-02-21T17:06:17.974Z,100523.41
2023-02-21T17:08:45.969Z,100535.75
2023-02-21T17:11:14.305Z,100535.84
2023-02-21T17:13:43.546Z,100542.84
2023-02-21T17:16:11.552Z,100546.34
2023-02-21T17:18:39.164Z,100550.66
2023-02-21T17:21:06.827Z,100556.84
2023-02-21T17:23:34.763Z,100561.94
2023-02-21T17:26:02.321Z,100556.53
2023-02-21T17:28:30.184Z,100560.44
2023-02-21T17:30:58.239Z,100566.13
2023-02-21T17:33:25.907Z,100568.13
2023-02-21T17:35:53.737Z,100563.72
2023-02-21T17:38:21.722Z,100580.22
2023-02-21T17:40:49.647Z,100573.72
2023-02-21T17:43:17.713Z,100581.41
2023-02-21T17:45:46.297Z,100577.59
2023-02-21T17:48:14.272Z,100579.37
2023-02-21T17:50:42.371Z,100592.22
2023-02-21T17:53:10.712Z,100590.06
2023-02-21T17:55:38.537Z,100593.69
2023-02-21T17:58:06.332Z,100589.34
2023-02-21T18:00:35.579Z,100589.78
2023-02-21T18:03:04.094Z,100588.31
2023-02-21T18:05:31.914Z,100588.22
2023-02-21T18:07:59.723Z,100589.87
2023-02-21T18:10:28.169Z,100581.56
2023-02-21T18:12:56.820Z,100588.63
2023-02-21T18:15:27.536Z,100577.38
2023-02-21T18:17:56.285Z,100583.56
2023-02-21T18:20:24.972Z,100582.09
2023-02-21T18:22:53.141Z,100579.91
2023-02-21T18:25:24.266Z,100587.00
2023-02-21T18:27:52.156Z,100584.59
2023-02-21T18:30:20.402Z,100588.38
2023-02-21T18:32:48.512Z,100582.69
2023-02-21T18:35:16.887Z,100592.66
2023-02-21T18:37:47.201Z,100585.16
2023-02-21T18:40:16.970Z,100589.87
2023-02-21T18:42:47.680Z,100588.56
2023-02-21T18:45:15.891Z,100578.69
2023-02-21T18:47:43.917Z,100578.78
2023-02-21T18:50:12.873Z,100580.34
2023-02-21T18:52:41.868Z,100591.19
2023-02-21T18:55:10.064Z,100585.34
2023-02-21T18:57:39.954Z,100588.22
2023-02-21T19:00:09.046Z,100583.63
2023-02-21T19:02:39.427Z,100585.53
2023-02-21T19:05:07.757Z,100594.41
2023-02-21T19:07:36.627Z,100591.97
2023-02-21T19:10:05.376Z,100597.75
2023-02-21T19:12:33.131Z,100587.25
2023-02-21T19:15:01.405Z,100596.69
2023-02-21T19:17:29.690Z,100609.87
2023-02-21T19:20:10.893Z,100609.00
2023-02-21T19:22:39.268Z,100602.38
2023-02-21T19:25:07.314Z,100604.22
2023-02-21T19:27:35.445Z,100610.75
2023-02-21T19:30:05.448Z,100604.72
2023-02-21T19:32:36.519Z,100603.06
2023-02-21T19:35:06.062Z,100608.97
2023-02-21T19:37:33.712Z,100605.25
2023-02-21T19:40:07.415Z,100612.53
2023-02-21T19:42:36.017Z,100611.00
2023-02-21T19:45:03.976Z,100611.13
2023-02-21T19:47:31.858Z,100608.75
2023-02-21T19:50:01.672Z,100611.44
2023-02-21T19:52:29.809Z,100615.09
2023-02-21T19:54:57.604Z,100616.00
2023-02-21T19:57:25.449Z,100620.69
2023-02-21T19:59:53.493Z,100614.78
2023-02-21T20:02:21.417Z,100620.94
2023-02-21T20:04:49.925Z,100621.75
2023-02-21T20:07:18.808Z,100619.19
2023-02-21T20:09:48.250Z,100616.72
2023-02-21T20:12:19.142Z,100610.06
2023-02-21T20:14:48.713Z,100623.44
2023-02-21T20:17:18.142Z,100620.44
2023-02-21T20:19:46.083Z,100619.47
2023-02-21T20:22:14.094Z,100616.78
2023-02-21T20:24:45.834Z,100624.16
2023-02-21T20:27:15.256Z,100619.13
2023-02-21T20:29:44.389Z,100626.34
2023-02-21T20:32:15.737Z,100630.94
2023-02-21T20:34:44.165Z,100632.81
2023-02-21T20:37:12.137Z,100634.75
2023-02-21T20:39:40.503Z,100636.19
2023-02-21T20:42:08.762Z,100634.88
2023-02-21T20:44:38.282Z,100639.59
2023-02-21T20:47:06.684Z,100639.03
2023-02-21T20:49:36.368Z,100635.88
2023-02-21T20:52:05.020Z,100632.56
2023-02-21T20:54:32.709Z,100630.69
2023-02-21T20:57:01.016Z,100635.72
2023-02-21T20:59:35.151Z,100631.44
2023-02-21T21:02:03.614Z,100628.72
2023-02-21T21:04:35.300Z,100626.56
2023-02-21T21:07:09.033Z,100623.78
2023-02-21T21:09:37.775Z,100621.75
2023-02-21T21:12:09.372Z,100621.31
2023-02-21T21:14:41.560Z,100628.81
2023-02-21T21:17:12.960Z,100619.25
2023-02-21T21:19:42.371Z,100616.91
2023-02-21T21:22:13.471Z,100620.28
2023-02-21T21:24:41.584Z,100621.97
2023-02-21T21:27:14.947Z,100627.28
2023-02-21T21:29:44.612Z,100622.91
2023-02-21T21:32:21.828Z,100626.47
2023-02-21T21:34:52.084Z,100619.19
2023-02-21T21:37:22.981Z,100606.41
2023-02-21T21:39:54.694Z,100614.06
2023-02-21T21:42:27.496Z,100617.38
2023-02-21T21:44:56.970Z,100614.03
2023-02-21T21:47:32.070Z,100612.03
2023-02-21T21:50:02.516Z,100609.38
2023-02-21T21:52:30.322Z,100609.00
2023-02-21T21:54:58.525Z,100611.94
2023-02-21T21:57:27.120Z,100612.56
2023-02-21T21:59:57.412Z,100610.88
2023-02-21T22:02:25.031Z,100614.16
2023-02-21T22:04:53.460Z,100609.06
2023-02-21T22:07:21.079Z,100599.59
2023-02-21T22:09:49.563Z,100606.75
2023-02-21T22:12:18.250Z,100603.31
2023-02-21T22:14:45.737Z,100605.03
2023-02-21T22:17:13.269Z,100605.56
2023-02-21T22:19:43.604Z,100593.25
2023-02-21T22:22:11.394Z,100606.37
2023-02-21T22:24:40.583Z,100600.72
2023-02-21T22:27:08.500Z,100603.59
2023-02-21T22:29:35.988Z,100594.97
2023-02-21T22:32:03.698Z,100598.06
2023-02-21T22:34:31.450Z,100598.78
2023-02-21T22:36:59.072Z,100597.81
2023-02-21T22:39:27.400Z,100590.97
2023-02-21T22:41:55.330Z,100597.97
2023-02-21T22:44:26.573Z,100608.44
2023-02-21T22:46:58.753Z,100599.09
2023-02-21T22:49:27.503Z,100607.81
2023-02-21T22:51:57.637Z,100604.38
2023-02-21T22:54:26.563Z,100613.13
2023-02-21T22:57:03.538Z,100612.78
2023-02-21T22:59:34.265Z,100609.66
2023-02-21T23:02:03.199Z,100611.72
2023-02-21T23:04:37.535Z,100610.72
2023-02-21T23:07:05.713Z,100610.13
2023-02-21T23:09:37.052Z,100610.03
2023-02-21T23:12:05.938Z,100611.09
2023-02-21T23:14:36.679Z,100614.81
2023-02-21T23:17:04.246Z,100609.59
2023-02-21T23:19:32.273Z,100612.66
2023-02-21T23:22:00.602Z,100609.84
2023-02-21T23:24:28.294Z,100610.44
2023-02-21T23:26:55.967Z,100607.91
2023-02-21T23:29:25.251Z,100607.78
2023-02-21T23:31:58.082Z,100601.31
2023-02-21T23:34:40.542Z,100608.16
2023-02-21T23:37:12.189Z,100604.72
2023-02-21T23:39:42.165Z,100602.91
2023-02-21T23:42:11.026Z,100606.91
2023-02-21T23:44:38.929Z,100597.47
2023-02-21T23:47:06.804Z,100605.50
2023-02-21T23:49:34.576Z,100607.31
2023-02-21T23:52:02.149Z,100614.28
2023-02-21T23:54:31.232Z,100602.44
2023-02-21T23:57:00.842Z,100612.06
2023-02-21T23:59:28.980Z,100617.47
